Englewood, KS (67840)

7:15 AM CDT on September 28, 2016 (GMT -0500)
APRSWXNET | | Change Station

Elev 2461 ft 37.18 °N, 100.23 °W | Updated 22 minutes ago

Clear
Clear
52 °F
Feels Like 52 °F
N
5
Wind Variable Wind from North
Gusts 7.0 mph

Today
High -- | Low -- °F
--% Chance of Precip.
Yesterday
High -- | Low -- °F
Precip. -- in
Pressure 30.01 in
Visibility 10.0 miles
Clouds Clear
Dew Point 43 °F
Humidity 70%
Rainfall in
Snow Depth Not available.
7:33 AM 7:26 PM
Waning Crescent, 6% visible
METAR KDDC 281152Z AUTO 33006KT 10SM CLR 11/04 A3008 RMK AO2 SLP163 T01110044 10194 20100 53019
Pressure 30.01 in
Visibility 10.0 miles
Clouds Clear
Dew Point 43 °F
Humidity 70%
Rainfall in
Snow Depth Not available.
7:33 AM 7:26 PM
Waning Crescent, 6% visible
METAR KDDC 281152Z AUTO 33006KT 10SM CLR 11/04 A3008 RMK AO2 SLP163 T01110044 10194 20100 53019

10-Day Weather Forecast

Almanac

Astronomy

Sep. 28, 2016 Rise Set
Actual Time
Civil Twilight
Nautical Twilight
Astronomical Twilight
Moon
Length of Visible Light
Length of Day
Tomorrow will be .
, % of the Moon is Illuminated

Today's Extremes

State Highs State Lows

Community

WunderPhotos

Upload Photos

1,942,236 photos uploaded!

WunderBlog® & News

Nearby

Air Quality

  Air Quality AQ Index Pollutant
Not available.

Snow Depth

Station Depth Elevation

Earthquake Activity

City Distance Mag. Time & Date
Minimum magnitude displayed is 2.5.

Coastal Water Temperatures

Place Temperature

Stations

Nearby Weather Stations

Station Location Temp. Windchill Dew Point Humidity Wind Precip. Elev Updated Type
                   

Watches & Warnings

There are currently no watches in effect.